Big Bear Station Historical Data
Daily Summary for June 27, 2019 Units:  English    Metric   Both
Next Day »
Daily Weekly Monthly Yearly Custom
  High: Low: Average:
Temperature: 76.5 °F 43 °F 59.7 °F
Dew Point: 38.4 °F 22.1 °F 31.5 °F
Humidity: 78% 19% 38%
Wind Speed: 6.8mph 0mph 0.6mph
Wind Gust: -999mph - -
Wind- - WNW
Pressure: 23.60 in 23.53 in -
Precipitation: 0 in    
Historical Graphs
 
 
Tabular Data for June 27, 2019
Time Temperature Dew Point Pressure Wind Wind Speed Wind Gust Humidity Rainfall Rate (Hourly)
00:08 48.2 °F 23.1 °F 23.54 in Calm   -999 mph 37% 0.00 in
00:23 48.2 °F 28.9 °F 23.54 in Calm   -999 mph 47% 0.00 in
00:38 47.5 °F 25 °F 23.54 in Calm   -999 mph 41% 0.00 in
00:54 47.1 °F 22.1 °F 23.54 in Calm   -999 mph 37% 0.00 in
01:09 46.6 °F 23.6 °F 23.54 in Calm   -999 mph 40% 0.00 in
01:24 46.2 °F 30.9 °F 23.54 in Calm   -999 mph 55% 0.00 in
01:40 46 °F 32.5 °F 23.54 in Calm   -999 mph 59% 0.00 in
01:55 45.9 °F 28.8 °F 23.54 in Calm   -999 mph 51% 0.00 in
02:10 45.1 °F 27.1 °F 23.54 in Calm   -999 mph 49% 0.00 in
02:25 45.1 °F 23.4 °F 23.54 in Calm   -999 mph 42% 0.00 in
02:41 44.6 °F 26.1 °F 23.53 in Calm   -999 mph 48% 0.00 in
02:56 44.6 °F 27.6 °F 23.53 in Calm   -999 mph 51% 0.00 in
03:11 44.4 °F 31 °F 23.53 in Calm   -999 mph 59% 0.00 in
03:26 43.9 °F 27.9 °F 23.53 in Calm   -999 mph 53% 0.00 in
03:41 43.9 °F 22.8 °F 23.53 in Calm   -999 mph 43% 0.00 in
03:57 43.7 °F 28.6 °F 23.53 in Calm   -999 mph 55% 0.00 in
04:12 43.5 °F 32.9 °F 23.53 in Calm   -999 mph 66% 0.00 in
04:27 43.5 °F 33.6 °F 23.53 in Calm   -999 mph 68% 0.00 in
04:42 43.7 °F 33.5 °F 23.54 in Calm   -999 mph 67% 0.00 in
04:57 43.5 °F 33.3 °F 23.54 in Calm   -999 mph 67% 0.00 in
05:13 43.5 °F 34 °F 23.54 in Calm   -999 mph 69% 0.00 in
05:28 43.2 °F 34.1 °F 23.54 in Calm   -999 mph 70% 0.00 in
05:43 43.7 °F 35.6 °F 23.55 in Calm   -999 mph 73% 0.00 in
05:58 43.2 °F 34.8 °F 23.55 in Calm   -999 mph 72% 0.00 in
06:14 43 °F 31.3 °F 23.55 in Calm   -999 mph 63% 0.00 in
06:29 43.2 °F 29.8 °F 23.55 in Calm   -999 mph 59% 0.00 in
06:44 43.5 °F 34.7 °F 23.56 in Calm   -999 mph 71% 0.00 in
06:59 44.6 °F 38.2 °F 23.56 in Calm   -999 mph 78% 0.00 in
07:14 45.5 °F 38.4 °F 23.56 in Calm   -999 mph 76% 0.00 in
07:30 48 °F 37.2 °F 23.56 in Calm   -999 mph 66% 0.00 in
07:45 50.9 °F 31.4 °F 23.56 in Calm   -999 mph 47% 0.00 in
08:00 53.6 °F 31.6 °F 23.56 in Calm   -999 mph 43% 0.00 in
08:15 56.3 °F 29 °F 23.56 in Calm   -999 mph 35% 0.00 in
08:30 57.7 °F 29.5 °F 23.57 in Calm   -999 mph 34% 0.00 in
08:46 59 °F 27.6 °F 23.57 in Calm   -999 mph 30% 0.00 in
09:01 60.1 °F 27.7 °F 23.57 in Calm   -999 mph 29% 0.00 in
09:16 61.3 °F 27 °F 23.57 in Calm   -999 mph 27% 0.00 in
09:31 62.2 °F 26.9 °F 23.57 in Calm   -999 mph 26% 0.00 in
09:46 63.9 °F 25.4 °F 23.57 in Calm   -999 mph 23% 0.00 in
10:02 65.3 °F 27.6 °F 23.57 in Calm   -999 mph 24% 0.00 in
10:17 65.8 °F 28 °F 23.58 in Calm   -999 mph 24% 0.00 in
10:32 66 °F 27.1 °F 23.58 in Calm   -999 mph 23% 0.00 in
10:47 66.6 °F 26.6 °F 23.58 in SSE 2.7 mph -999 mph 22% 0.00 in
11:03 67.1 °F 29.1 °F 23.59 in Calm   -999 mph 24% 0.00 in
11:18 68.2 °F 30 °F 23.59 in Calm   -999 mph 24% 0.00 in
11:33 69.4 °F 30 °F 23.59 in Calm   -999 mph 23% 0.00 in
11:48 71.4 °F 31.7 °F 23.59 in Calm   -999 mph 23% 0.00 in
12:03 72.1 °F 33.3 °F 23.60 in Calm   -999 mph 24% 0.00 in
12:19 73.4 °F 33.3 °F 23.59 in Calm   -999 mph 23% 0.00 in
12:34 74.3 °F 34.1 °F 23.60 in NNW 3.2 mph -999 mph 23% 0.00 in
12:49 74.1 °F 32.8 °F 23.60 in WNW 4.2 mph -999 mph 22% 0.00 in
13:04 75.2 °F 34.9 °F 23.60 in Calm   -999 mph 23% 0.00 in
13:20 75.6 °F 35.2 °F 23.60 in Calm   -999 mph 23% 0.00 in
13:35 75.4 °F 33.9 °F 23.60 in NW 1.1 mph -999 mph 22% 0.00 in
13:50 75.4 °F 33.9 °F 23.60 in NW 4.2 mph -999 mph 22% 0.00 in
14:05 75 °F 34.7 °F 23.60 in Calm   -999 mph 23% 0.00 in
14:20 75.7 °F 35.3 °F 23.60 in North 4.7 mph -999 mph 23% 0.00 in
14:36 75.9 °F 34.3 °F 23.59 in Calm   -999 mph 22% 0.00 in
14:51 75.2 °F 34.9 °F 23.60 in NW 2.7 mph -999 mph 23% 0.00 in
15:06 76.1 °F 33.3 °F 23.59 in NW 6.8 mph -999 mph 21% 0.00 in
15:21 75 °F 34.7 °F 23.59 in Calm   -999 mph 23% 0.00 in
15:37 74.7 °F 36.5 °F 23.59 in NW 6.8 mph -999 mph 25% 0.00 in
15:52 75.2 °F 34.9 °F 23.59 in NW 1.1 mph -999 mph 23% 0.00 in
16:07 74.1 °F 33.9 °F 23.58 in NNW 1.1 mph -999 mph 23% 0.00 in
16:23 73.6 °F 30 °F 23.59 in Calm   -999 mph 20% 0.00 in
16:38 74.5 °F 32 °F 23.58 in WNW 5.3 mph -999 mph 21% 0.00 in
16:54 75.2 °F 30.1 °F 23.58 in Calm   -999 mph 19% 0.00 in
17:09 75.4 °F 32.7 °F 23.58 in Calm   -999 mph 21% 0.00 in
17:24 76.5 °F 31.2 °F 23.57 in NNE 5.8 mph -999 mph 19% 0.00 in
17:39 75.6 °F 30.4 °F 23.57 in NW 5.8 mph -999 mph 19% 0.00 in
17:54 74.7 °F 32.2 °F 23.57 in Calm   -999 mph 21% 0.00 in
18:10 74.3 °F 31.8 °F 23.57 in Calm   -999 mph 21% 0.00 in
18:25 75.7 °F 31.8 °F 23.57 in Calm   -999 mph 20% 0.00 in
18:40 74.8 °F 36.6 °F 23.57 in Calm   -999 mph 25% 0.00 in
18:55 73.9 °F 36.9 °F 23.57 in Calm   -999 mph 26% 0.00 in
19:10 70.9 °F 37.1 °F 23.57 in Calm   -999 mph 29% 0.00 in
19:26 66.9 °F 34.5 °F 23.57 in Calm   -999 mph 30% 0.00 in
19:41 64.4 °F 32.3 °F 23.56 in Calm   -999 mph 30% 0.00 in
19:56 62.2 °F 30.4 °F 23.57 in Calm   -999 mph 30% 0.00 in
20:11 60.8 °F 28.3 °F 23.57 in Calm   -999 mph 29% 0.00 in
20:26 59.9 °F 30.7 °F 23.57 in Calm   -999 mph 33% 0.00 in
20:42 59.2 °F 32.2 °F 23.57 in Calm   -999 mph 36% 0.00 in
20:57 58.1 °F 32 °F 23.57 in Calm   -999 mph 37% 0.00 in
21:12 57.7 °F 32.3 °F 23.57 in Calm   -999 mph 38% 0.00 in
21:27 57 °F 32.9 °F 23.58 in Calm   -999 mph 40% 0.00 in
21:42 56.5 °F 34.3 °F 23.58 in Calm   -999 mph 43% 0.00 in
21:58 55.8 °F 35.3 °F 23.58 in Calm   -999 mph 46% 0.00 in
22:13 55 °F 34 °F 23.58 in Calm   -999 mph 45% 0.00 in
22:28 54.5 °F 34.1 °F 23.58 in Calm   -999 mph 46% 0.00 in
22:43 53.6 °F 33.9 °F 23.58 in Calm   -999 mph 47% 0.00 in
22:58 52.9 °F 33.2 °F 23.58 in Calm   -999 mph 47% 0.00 in
23:14 53.4 °F 34.7 °F 23.58 in Calm   -999 mph 49% 0.00 in
23:29 53.8 °F 35.1 °F 23.58 in Calm   -999 mph 49% 0.00 in
23:44 53.2 °F 33.5 °F 23.57 in Calm   -999 mph 47% 0.00 in
23:59 53.4 °F 29.7 °F 23.57 in Calm   -999 mph 40% 0.00 in
Big Bear CA Weather